Aviation Digital Data Service (ADDS)

Output produced by METARs form (1818 UTC 18 April 2019)
found at http://www.aviationweather.gov/metar/data/
 
METAR text: ZBAA 181800Z 09002MPS CAVOK 09/M02 Q1020 NOSIG
Conditions at: ZBAA (BEIJING/PEKING , CN) observed 1800 UTC 18 April 2019
Temperature: 9.0°C (48°F)
Dewpoint: -2.0°C (28°F) [RH = 46%]
Pressure (altimeter): 30.12 inches Hg (1020.0 mb)
Winds: from the E (90 degrees) at 5 MPH (4 knots; 2.1 m/s)
Visibility: 6 or more miles (10+ km)
Ceiling: ceiling and visibility are OK
Clouds: unknown
Weather: no significant weather observed at this time

METAR text: ZBAA 181730Z VRB01MPS CAVOK 11/M03 Q1021 NOSIG
Conditions at: ZBAA (BEIJING/PEKING , CN) observed 1730 UTC 18 April 2019
Temperature: 11.0°C (52°F)
Dewpoint: -3.0°C (27°F) [RH = 37%]
Pressure (altimeter): 30.15 inches Hg (1021.0 mb)
Winds: variable direction winds at 2 MPH (2 knots; 1.0 m/s)
Visibility: 6 or more miles (10+ km)
Ceiling: ceiling and visibility are OK
Clouds: unknown
Weather: no significant weather observed at this time

METAR text: ZBAA 181700Z 14002MPS CAVOK 11/M03 Q1021 NOSIG
Conditions at: ZBAA (BEIJING/PEKING , CN) observed 1700 UTC 18 April 2019
Temperature: 11.0°C (52°F)
Dewpoint: -3.0°C (27°F) [RH = 37%]
Pressure (altimeter): 30.15 inches Hg (1021.0 mb)
Winds: from the SE (140 degrees) at 5 MPH (4 knots; 2.1 m/s)
Visibility: 6 or more miles (10+ km)
Ceiling: ceiling and visibility are OK
Clouds: unknown
Weather: no significant weather observed at this time

METAR text: ZBAA 181630Z 15003MPS CAVOK 12/M04 Q1020 NOSIG
Conditions at: ZBAA (BEIJING/PEKING , CN) observed 1630 UTC 18 April 2019
Temperature: 12.0°C (54°F)
Dewpoint: -4.0°C (25°F) [RH = 32%]
Pressure (altimeter): 30.12 inches Hg (1020.0 mb)
Winds: from the SSE (150 degrees) at 7 MPH (6 knots; 3.1 m/s)
Visibility: 6 or more miles (10+ km)
Ceiling: ceiling and visibility are OK
Clouds: unknown
Weather: no significant weather observed at this time

METAR text: ZBAA 181600Z 15003MPS CAVOK 13/M04 Q1020 NOSIG
Conditions at: ZBAA (BEIJING/PEKING , CN) observed 1600 UTC 18 April 2019
Temperature: 13.0°C (55°F)
Dewpoint: -4.0°C (25°F) [RH = 30%]
Pressure (altimeter): 30.12 inches Hg (1020.0 mb)
Winds: from the SSE (150 degrees) at 7 MPH (6 knots; 3.1 m/s)
Visibility: 6 or more miles (10+ km)
Ceiling: ceiling and visibility are OK
Clouds: unknown
Weather: no significant weather observed at this time

METAR text: ZBAA 181530Z 15003MPS CAVOK 13/M03 Q1020 NOSIG
Conditions at: ZBAA (BEIJING/PEKING , CN) observed 1530 UTC 18 April 2019
Temperature: 13.0°C (55°F)
Dewpoint: -3.0°C (27°F) [RH = 33%]
Pressure (altimeter): 30.12 inches Hg (1020.0 mb)
Winds: from the SSE (150 degrees) at 7 MPH (6 knots; 3.1 m/s)
Visibility: 6 or more miles (10+ km)
Ceiling: ceiling and visibility are OK
Clouds: unknown
Weather: no significant weather observed at this time

METAR text: ZBAA 181500Z 14003MPS 110V170 CAVOK 13/M03 Q1020 NOSIG
Conditions at: ZBAA (BEIJING/PEKING , CN) observed 1500 UTC 18 April 2019
Temperature: 13.0°C (55°F)
Dewpoint: -3.0°C (27°F) [RH = 33%]
Pressure (altimeter): 30.12 inches Hg (1020.0 mb)
Winds: from the SE (140 degrees) at 7 MPH (6 knots; 3.1 m/s)
Visibility: 6 or more miles (10+ km)
Ceiling: ceiling and visibility are OK
Clouds: unknown
Weather: no significant weather observed at this time

METAR text: ZBAA 181430Z 14003MPS CAVOK 13/M02 Q1020 NOSIG
Conditions at: ZBAA (BEIJING/PEKING , CN) observed 1430 UTC 18 April 2019
Temperature: 13.0°C (55°F)
Dewpoint: -2.0°C (28°F) [RH = 35%]
Pressure (altimeter): 30.12 inches Hg (1020.0 mb)
Winds: from the SE (140 degrees) at 7 MPH (6 knots; 3.1 m/s)
Visibility: 6 or more miles (10+ km)
Ceiling: ceiling and visibility are OK
Clouds: unknown
Weather: no significant weather observed at this time

METAR text: ZBAA 181400Z 14003MPS CAVOK 13/M01 Q1019 NOSIG
Conditions at: ZBAA (BEIJING/PEKING , CN) observed 1400 UTC 18 April 2019
Temperature: 13.0°C (55°F)
Dewpoint: -1.0°C (30°F) [RH = 38%]
Pressure (altimeter): 30.09 inches Hg (1019.0 mb)
Winds: from the SE (140 degrees) at 7 MPH (6 knots; 3.1 m/s)
Visibility: 6 or more miles (10+ km)
Ceiling: ceiling and visibility are OK
Clouds: unknown
Weather: no significant weather observed at this time

METAR text: ZBAA 181330Z 14004MPS CAVOK 14/M01 Q1019 NOSIG
Conditions at: ZBAA (BEIJING/PEKING , CN) observed 1330 UTC 18 April 2019
Temperature: 14.0°C (57°F)
Dewpoint: -1.0°C (30°F) [RH = 36%]
Pressure (altimeter): 30.09 inches Hg (1019.0 mb)
Winds: from the SE (140 degrees) at 9 MPH (8 knots; 4.1 m/s)
Visibility: 6 or more miles (10+ km)
Ceiling: ceiling and visibility are OK
Clouds: unknown
Weather: no significant weather observed at this time

METAR text: ZBAA 181300Z 14005MPS 100V160 8000 BLDU NSC 14/M01 Q1019 BECMG TL1340 NSW
Conditions at: ZBAA (BEIJING/PEKING , CN) observed 1300 UTC 18 April 2019
Temperature: 14.0°C (57°F)
Dewpoint: -1.0°C (30°F) [RH = 36%]
Pressure (altimeter): 30.09 inches Hg (1019.0 mb)
Winds: from the SE (140 degrees) at 12 MPH (10 knots; 5.1 m/s)
Visibility: 5 miles ( 8 km)
Ceiling: at least 12,000 feet AGL
Clouds: sky clear below 12,000 feet AGL
Weather: BLDU  (blowing dust)

METAR text: ZBAA 181230Z 14005MPS 8000 BLDU NSC 15/M00 Q1018 NOSIG
Conditions at: ZBAA (BEIJING/PEKING , CN) observed 1230 UTC 18 April 2019
Temperature: 15.0°C (59°F)
Dewpoint: 0.0°C (32°F) [RH = 36%]
Pressure (altimeter): 30.06 inches Hg (1018.0 mb)
Winds: from the SE (140 degrees) at 12 MPH (10 knots; 5.1 m/s)
Visibility: 5 miles ( 8 km)
Ceiling: at least 12,000 feet AGL
Clouds: sky clear below 12,000 feet AGL
Weather: BLDU  (blowing dust)

METAR text: ZBAA 181200Z 14005MPS 8000 BLDU NSC 16/M00 Q1017 BECMG TL1340 NSW
Conditions at: ZBAA (BEIJING/PEKING , CN) observed 1200 UTC 18 April 2019
Temperature: 16.0°C (61°F)
Dewpoint: 0.0°C (32°F) [RH = 34%]
Pressure (altimeter): 30.03 inches Hg (1017.0 mb)
Winds: from the SE (140 degrees) at 12 MPH (10 knots; 5.1 m/s)
Visibility: 5 miles ( 8 km)
Ceiling: at least 12,000 feet AGL
Clouds: sky clear below 12,000 feet AGL
Weather: BLDU  (blowing dust)

METAR text: ZBAA 181130Z 14006MPS 110V170 CAVOK 16/00 Q1016 NOSIG
Conditions at: ZBAA (BEIJING/PEKING , CN) observed 1130 UTC 18 April 2019
Temperature: 16.0°C (61°F)
Dewpoint: 0.0°C (32°F) [RH = 34%]
Pressure (altimeter): 30.00 inches Hg (1016.0 mb)
Winds: from the SE (140 degrees) at 14 MPH (12 knots; 6.2 m/s)
Visibility: 6 or more miles (10+ km)
Ceiling: ceiling and visibility are OK
Clouds: unknown
Weather: no significant weather observed at this time

METAR text: ZBAA 181100Z 14005MPS 110V170 CAVOK 17/01 Q1015 BECMG TL1140 BLDU
Conditions at: ZBAA (BEIJING/PEKING , CN) observed 1100 UTC 18 April 2019
Temperature: 17.0°C (63°F)
Dewpoint: 1.0°C (34°F) [RH = 34%]
Pressure (altimeter): 29.97 inches Hg (1015.0 mb)
Winds: from the SE (140 degrees) at 12 MPH (10 knots; 5.1 m/s)
Visibility: 6 or more miles (10+ km)
Ceiling: ceiling and visibility are OK
Clouds: unknown
Weather: no significant weather observed at this time

METAR text: ZBAA 181030Z 14006MPS CAVOK 18/01 Q1015 NOSIG
Conditions at: ZBAA (BEIJING/PEKING , CN) observed 1030 UTC 18 April 2019
Temperature: 18.0°C (64°F)
Dewpoint: 1.0°C (34°F) [RH = 32%]
Pressure (altimeter): 29.97 inches Hg (1015.0 mb)
Winds: from the SE (140 degrees) at 14 MPH (12 knots; 6.2 m/s)
Visibility: 6 or more miles (10+ km)
Ceiling: ceiling and visibility are OK
Clouds: unknown
Weather: no significant weather observed at this time

METAR text: ZBAA 181000Z 14006MPS CAVOK 19/02 Q1014 BECMG TL1140 BLDU
Conditions at: ZBAA (BEIJING/PEKING , CN) observed 1000 UTC 18 April 2019
Temperature: 19.0°C (66°F)
Dewpoint: 2.0°C (36°F) [RH = 32%]
Pressure (altimeter): 29.94 inches Hg (1014.0 mb)
Winds: from the SE (140 degrees) at 14 MPH (12 knots; 6.2 m/s)
Visibility: 6 or more miles (10+ km)
Ceiling: ceiling and visibility are OK
Clouds: unknown
Weather: no significant weather observed at this time

METAR text: ZBAA 180930Z 14006MPS 110V170 CAVOK 20/01 Q1014 NOSIG
Conditions at: ZBAA (BEIJING/PEKING , CN) observed 0930 UTC 18 April 2019
Temperature: 20.0°C (68°F)
Dewpoint: 1.0°C (34°F) [RH = 28%]
Pressure (altimeter): 29.94 inches Hg (1014.0 mb)
Winds: from the SE (140 degrees) at 14 MPH (12 knots; 6.2 m/s)
Visibility: 6 or more miles (10+ km)
Ceiling: ceiling and visibility are OK
Clouds: unknown
Weather: no significant weather observed at this time

METAR text: ZBAA 180900Z 15007MPS 120V180 CAVOK 21/02 Q1013 NOSIG
Conditions at: ZBAA (BEIJING/PEKING , CN) observed 0900 UTC 18 April 2019
Temperature: 21.0°C (70°F)
Dewpoint: 2.0°C (36°F) [RH = 28%]
Pressure (altimeter): 29.91 inches Hg (1013.0 mb)
Winds: from the SSE (150 degrees) at 16 MPH (14 knots; 7.2 m/s)
Visibility: 6 or more miles (10+ km)
Ceiling: ceiling and visibility are OK
Clouds: unknown
Weather: no significant weather observed at this time

METAR text: ZBAA 180830Z 11002MPS 070V160 CAVOK 22/M05 Q1013 NOSIG
Conditions at: ZBAA (BEIJING/PEKING , CN) observed 0830 UTC 18 April 2019
Temperature: 22.0°C (72°F)
Dewpoint: -5.0°C (23°F) [RH = 16%]
Pressure (altimeter): 29.91 inches Hg (1013.0 mb)
Winds: from the ESE (110 degrees) at 5 MPH (4 knots; 2.1 m/s)
Visibility: 6 or more miles (10+ km)
Ceiling: ceiling and visibility are OK
Clouds: unknown
Weather: no significant weather observed at this time

METAR text: ZBAA 180800Z 10002MPS 050V170 CAVOK 22/M06 Q1013 NOSIG
Conditions at: ZBAA (BEIJING/PEKING , CN) observed 0800 UTC 18 April 2019
Temperature: 22.0°C (72°F)
Dewpoint: -6.0°C (21°F) [RH = 15%]
Pressure (altimeter): 29.91 inches Hg (1013.0 mb)
Winds: from the E (100 degrees) at 5 MPH (4 knots; 2.1 m/s)
Visibility: 6 or more miles (10+ km)
Ceiling: ceiling and visibility are OK
Clouds: unknown
Weather: no significant weather observed at this time

METAR text: ZBAA 180730Z 09002MPS 020V150 CAVOK 23/M06 Q1014 NOSIG
Conditions at: ZBAA (BEIJING/PEKING , CN) observed 0730 UTC 18 April 2019
Temperature: 23.0°C (73°F)
Dewpoint: -6.0°C (21°F) [RH = 14%]
Pressure (altimeter): 29.94 inches Hg (1014.0 mb)
Winds: from the E (90 degrees) at 5 MPH (4 knots; 2.1 m/s)
Visibility: 6 or more miles (10+ km)
Ceiling: ceiling and visibility are OK
Clouds: unknown
Weather: no significant weather observed at this time

METAR text: ZBAA 180700Z 02003MPS 330V110 CAVOK 23/M07 Q1014 BECMG TL0820 14005MPS
Conditions at: ZBAA (BEIJING/PEKING , CN) observed 0700 UTC 18 April 2019
Temperature: 23.0°C (73°F)
Dewpoint: -7.0°C (19°F) [RH = 13%]
Pressure (altimeter): 29.94 inches Hg (1014.0 mb)
Winds: from the NNE (20 degrees) at 7 MPH (6 knots; 3.1 m/s)
Visibility: 6 or more miles (10+ km)
Ceiling: ceiling and visibility are OK
Clouds: unknown
Weather: no significant weather observed at this time

METAR text: ZBAA 180630Z 04003MPS 340V060 CAVOK 22/M07 Q1014 NOSIG
Conditions at: ZBAA (BEIJING/PEKING , CN) observed 0630 UTC 18 April 2019
Temperature: 22.0°C (72°F)
Dewpoint: -7.0°C (19°F) [RH = 14%]
Pressure (altimeter): 29.94 inches Hg (1014.0 mb)
Winds: from the NE (40 degrees) at 7 MPH (6 knots; 3.1 m/s)
Visibility: 6 or more miles (10+ km)
Ceiling: ceiling and visibility are OK
Clouds: unknown
Weather: no significant weather observed at this time

METAR text: ZBAA 180600Z 01005MPS 330V060 CAVOK 23/M06 Q1015 BECMG TL0640 08004MPS
Conditions at: ZBAA (BEIJING/PEKING , CN) observed 0600 UTC 18 April 2019
Temperature: 23.0°C (73°F)
Dewpoint: -6.0°C (21°F) [RH = 14%]
Pressure (altimeter): 29.97 inches Hg (1015.0 mb)
Winds: from the N (10 degrees) at 12 MPH (10 knots; 5.1 m/s)
Visibility: 6 or more miles (10+ km)
Ceiling: ceiling and visibility are OK
Clouds: unknown
Weather: no significant weather observed at this time

METAR text: ZBAA 180530Z 03006MPS 360V060 CAVOK 22/M06 Q1015 NOSIG
Conditions at: ZBAA (BEIJING/PEKING , CN) observed 0530 UTC 18 April 2019
Temperature: 22.0°C (72°F)
Dewpoint: -6.0°C (21°F) [RH = 15%]
Pressure (altimeter): 29.97 inches Hg (1015.0 mb)
Winds: from the NNE (30 degrees) at 14 MPH (12 knots; 6.2 m/s)
Visibility: 6 or more miles (10+ km)
Ceiling: ceiling and visibility are OK
Clouds: unknown
Weather: no significant weather observed at this time

METAR text: ZBAA 180500Z 01006MPS 320V070 CAVOK 23/M06 Q1015 NOSIG
Conditions at: ZBAA (BEIJING/PEKING , CN) observed 0500 UTC 18 April 2019
Temperature: 23.0°C (73°F)
Dewpoint: -6.0°C (21°F) [RH = 14%]
Pressure (altimeter): 29.97 inches Hg (1015.0 mb)
Winds: from the N (10 degrees) at 14 MPH (12 knots; 6.2 m/s)
Visibility: 6 or more miles (10+ km)
Ceiling: ceiling and visibility are OK
Clouds: unknown
Weather: no significant weather observed at this time

METAR text: ZBAA 180430Z 01007MPS 340V060 CAVOK 22/M06 Q1015 NOSIG
Conditions at: ZBAA (BEIJING/PEKING , CN) observed 0430 UTC 18 April 2019
Temperature: 22.0°C (72°F)
Dewpoint: -6.0°C (21°F) [RH = 15%]
Pressure (altimeter): 29.97 inches Hg (1015.0 mb)
Winds: from the N (10 degrees) at 16 MPH (14 knots; 7.2 m/s)
Visibility: 6 or more miles (10+ km)
Ceiling: ceiling and visibility are OK
Clouds: unknown
Weather: no significant weather observed at this time

METAR text: ZBAA 180400Z 02006G11MPS 350V060 CAVOK 22/M06 Q1016 NOSIG
Conditions at: ZBAA (BEIJING/PEKING , CN) observed 0400 UTC 18 April 2019
Temperature: 22.0°C (72°F)
Dewpoint: -6.0°C (21°F) [RH = 15%]
Pressure (altimeter): 30.00 inches Hg (1016.0 mb)
Winds: from the NNE (20 degrees) at 14 MPH (12 knots; 6.2 m/s)
gusting to 24 MPH (21 knots; 10.8 m/s)
Visibility: 6 or more miles (10+ km)
Ceiling: ceiling and visibility are OK
Clouds: unknown
Weather: no significant weather observed at this time

METAR text: ZBAA 180330Z 01008MPS 340V040 CAVOK 22/M07 Q1016 NOSIG
Conditions at: ZBAA (BEIJING/PEKING , CN) observed 0330 UTC 18 April 2019
Temperature: 22.0°C (72°F)
Dewpoint: -7.0°C (19°F) [RH = 14%]
Pressure (altimeter): 30.00 inches Hg (1016.0 mb)
Winds: from the N (10 degrees) at 18 MPH (16 knots; 8.2 m/s)
Visibility: 6 or more miles (10+ km)
Ceiling: ceiling and visibility are OK
Clouds: unknown
Weather: no significant weather observed at this time

METAR text: ZBAA 180300Z 36009G14MPS CAVOK 21/M08 Q1016 NOSIG
Conditions at: ZBAA (BEIJING/PEKING , CN) observed 0300 UTC 18 April 2019
Temperature: 21.0°C (70°F)
Dewpoint: -8.0°C (18°F) [RH = 13%]
Pressure (altimeter): 30.00 inches Hg (1016.0 mb)
Winds: from the N (360 degrees) at 20 MPH (17 knots; 8.7 m/s)
gusting to 31 MPH (27 knots; 13.9 m/s)
Visibility: 6 or more miles (10+ km)
Ceiling: ceiling and visibility are OK
Clouds: unknown
Weather: no significant weather observed at this time

METAR text: ZBAA 180230Z 02008MPS 330V050 CAVOK 21/M07 Q1016 NOSIG
Conditions at: ZBAA (BEIJING/PEKING , CN) observed 0230 UTC 18 April 2019
Temperature: 21.0°C (70°F)
Dewpoint: -7.0°C (19°F) [RH = 15%]
Pressure (altimeter): 30.00 inches Hg (1016.0 mb)
Winds: from the NNE (20 degrees) at 18 MPH (16 knots; 8.2 m/s)
Visibility: 6 or more miles (10+ km)
Ceiling: ceiling and visibility are OK
Clouds: unknown
Weather: no significant weather observed at this time

METAR text: ZBAA 180200Z 02007MPS 340V040 CAVOK 19/M07 Q1016 NOSIG
Conditions at: ZBAA (BEIJING/PEKING , CN) observed 0200 UTC 18 April 2019
Temperature: 19.0°C (66°F)
Dewpoint: -7.0°C (19°F) [RH = 16%]
Pressure (altimeter): 30.00 inches Hg (1016.0 mb)
Winds: from the NNE (20 degrees) at 16 MPH (14 knots; 7.2 m/s)
Visibility: 6 or more miles (10+ km)
Ceiling: ceiling and visibility are OK
Clouds: unknown
Weather: no significant weather observed at this time

METAR text: ZBAA 180130Z 03005MPS 340V070 CAVOK 20/M05 Q1016 NOSIG
Conditions at: ZBAA (BEIJING/PEKING , CN) observed 0130 UTC 18 April 2019
Temperature: 20.0°C (68°F)
Dewpoint: -5.0°C (23°F) [RH = 18%]
Pressure (altimeter): 30.00 inches Hg (1016.0 mb)
Winds: from the NNE (30 degrees) at 12 MPH (10 knots; 5.1 m/s)
Visibility: 6 or more miles (10+ km)
Ceiling: ceiling and visibility are OK
Clouds: unknown
Weather: no significant weather observed at this time

METAR text: ZBAA 180100Z 02006MPS 350V060 CAVOK 18/M05 Q1015 NOSIG
Conditions at: ZBAA (BEIJING/PEKING , CN) observed 0100 UTC 18 April 2019
Temperature: 18.0°C (64°F)
Dewpoint: -5.0°C (23°F) [RH = 20%]
Pressure (altimeter): 29.97 inches Hg (1015.0 mb)
Winds: from the NNE (20 degrees) at 14 MPH (12 knots; 6.2 m/s)
Visibility: 6 or more miles (10+ km)
Ceiling: ceiling and visibility are OK
Clouds: unknown
Weather: no significant weather observed at this time

METAR text: ZBAA 180030Z 02006MPS CAVOK 17/M05 Q1015 NOSIG
Conditions at: ZBAA (BEIJING/PEKING , CN) observed 0030 UTC 18 April 2019
Temperature: 17.0°C (63°F)
Dewpoint: -5.0°C (23°F) [RH = 22%]
Pressure (altimeter): 29.97 inches Hg (1015.0 mb)
Winds: from the NNE (20 degrees) at 14 MPH (12 knots; 6.2 m/s)
Visibility: 6 or more miles (10+ km)
Ceiling: ceiling and visibility are OK
Clouds: unknown
Weather: no significant weather observed at this time

METAR text: ZBAA 180000Z 02007G12MPS CAVOK 17/M05 Q1014 NOSIG
Conditions at: ZBAA (BEIJING/PEKING , CN) observed 0000 UTC 18 April 2019
Temperature: 17.0°C (63°F)
Dewpoint: -5.0°C (23°F) [RH = 22%]
Pressure (altimeter): 29.94 inches Hg (1014.0 mb)
Winds: from the NNE (20 degrees) at 16 MPH (14 knots; 7.2 m/s)
gusting to 26 MPH (23 knots; 11.8 m/s)
Visibility: 6 or more miles (10+ km)
Ceiling: ceiling and visibility are OK
Clouds: unknown
Weather: no significant weather observed at this time

METAR text: ZBAA 172330Z 02006G11MPS 340V050 CAVOK 17/M05 Q1014 NOSIG
Conditions at: ZBAA (BEIJING/PEKING , CN) observed 2330 UTC 17 April 2019
Temperature: 17.0°C (63°F)
Dewpoint: -5.0°C (23°F) [RH = 22%]
Pressure (altimeter): 29.94 inches Hg (1014.0 mb)
Winds: from the NNE (20 degrees) at 14 MPH (12 knots; 6.2 m/s)
gusting to 24 MPH (21 knots; 10.8 m/s)
Visibility: 6 or more miles (10+ km)
Ceiling: ceiling and visibility are OK
Clouds: unknown
Weather: no significant weather observed at this time

METAR text: ZBAA 172300Z 02005MPS 350V060 CAVOK 17/M06 Q1013 NOSIG
Conditions at: ZBAA (BEIJING/PEKING , CN) observed 2300 UTC 17 April 2019
Temperature: 17.0°C (63°F)
Dewpoint: -6.0°C (21°F) [RH = 20%]
Pressure (altimeter): 29.91 inches Hg (1013.0 mb)
Winds: from the NNE (20 degrees) at 12 MPH (10 knots; 5.1 m/s)
Visibility: 6 or more miles (10+ km)
Ceiling: ceiling and visibility are OK
Clouds: unknown
Weather: no significant weather observed at this time

METAR text: ZBAA 172230Z 03005G10MPS 360V070 CAVOK 18/M06 Q1012 NOSIG
Conditions at: ZBAA (BEIJING/PEKING , CN) observed 2230 UTC 17 April 2019
Temperature: 18.0°C (64°F)
Dewpoint: -6.0°C (21°F) [RH = 19%]
Pressure (altimeter): 29.88 inches Hg (1012.0 mb)
Winds: from the NNE (30 degrees) at 12 MPH (10 knots; 5.1 m/s)
gusting to 22 MPH (19 knots; 9.8 m/s)
Visibility: 6 or more miles (10+ km)
Ceiling: ceiling and visibility are OK
Clouds: unknown
Weather: no significant weather observed at this time

METAR text: ZBAA 172200Z 03006G11MPS 360V070 CAVOK 18/M06 Q1011 RMK WS RWY36R NOSIG
Conditions at: ZBAA (BEIJING/PEKING , CN) observed 2200 UTC 17 April 2019
Temperature: 18.0°C (64°F)
Dewpoint: -6.0°C (21°F) [RH = 19%]
Pressure (altimeter): 29.85 inches Hg (1011.0 mb)
Winds: from the NNE (30 degrees) at 14 MPH (12 knots; 6.2 m/s)
gusting to 24 MPH (21 knots; 10.8 m/s)
Visibility: 6 or more miles (10+ km)
Ceiling: ceiling and visibility are OK
Clouds: unknown
Weather: no significant weather observed at this time

METAR text: ZBAA 172130Z 03008G14MPS CAVOK 18/M06 Q1010 NOSIG
Conditions at: ZBAA (BEIJING/PEKING , CN) observed 2130 UTC 17 April 2019
Temperature: 18.0°C (64°F)
Dewpoint: -6.0°C (21°F) [RH = 19%]
Pressure (altimeter): 29.82 inches Hg (1010.0 mb)
Winds: from the NNE (30 degrees) at 18 MPH (16 knots; 8.2 m/s)
gusting to 31 MPH (27 knots; 13.9 m/s)
Visibility: 6 or more miles (10+ km)
Ceiling: ceiling and visibility are OK
Clouds: unknown
Weather: no significant weather observed at this time

METAR text: ZBAA 172100Z 03007G13MPS 360V060 CAVOK 19/M04 Q1009 NOSIG
Conditions at: ZBAA (BEIJING/PEKING , CN) observed 2100 UTC 17 April 2019
Temperature: 19.0°C (66°F)
Dewpoint: -4.0°C (25°F) [RH = 21%]
Pressure (altimeter): 29.79 inches Hg (1009.0 mb)
Winds: from the NNE (30 degrees) at 16 MPH (14 knots; 7.2 m/s)
gusting to 29 MPH (25 knots; 12.9 m/s)
Visibility: 6 or more miles (10+ km)
Ceiling: ceiling and visibility are OK
Clouds: unknown
Weather: no significant weather observed at this time

METAR text: ZBAA 172030Z 03008G14MPS 350V060 CAVOK 19/M04 Q1008 NOSIG
Conditions at: ZBAA (BEIJING/PEKING , CN) observed 2030 UTC 17 April 2019
Temperature: 19.0°C (66°F)
Dewpoint: -4.0°C (25°F) [RH = 21%]
Pressure (altimeter): 29.76 inches Hg (1008.0 mb)
Winds: from the NNE (30 degrees) at 18 MPH (16 knots; 8.2 m/s)
gusting to 31 MPH (27 knots; 13.9 m/s)
Visibility: 6 or more miles (10+ km)
Ceiling: ceiling and visibility are OK
Clouds: unknown
Weather: no significant weather observed at this time

METAR text: ZBAA 172000Z 02008G15MPS 350V060 8000 NSC 20/M03 Q1007 NOSIG
Conditions at: ZBAA (BEIJING/PEKING , CN) observed 2000 UTC 17 April 2019
Temperature: 20.0°C (68°F)
Dewpoint: -3.0°C (27°F) [RH = 21%]
Pressure (altimeter): 29.73 inches Hg (1007.0 mb)
Winds: from the NNE (20 degrees) at 18 MPH (16 knots; 8.2 m/s)
gusting to 33 MPH (29 knots; 14.9 m/s)
Visibility: 5 miles ( 8 km)
Ceiling: at least 12,000 feet AGL
Clouds: sky clear below 12,000 feet AGL
Weather: no significant weather observed at this time

METAR text: ZBAA 171930Z 03007G12MPS 360V070 7000 NSC 21/M04 Q1007 NOSIG
Conditions at: ZBAA (BEIJING/PEKING , CN) observed 1930 UTC 17 April 2019
Temperature: 21.0°C (70°F)
Dewpoint: -4.0°C (25°F) [RH = 18%]
Pressure (altimeter): 29.73 inches Hg (1007.0 mb)
Winds: from the NNE (30 degrees) at 16 MPH (14 knots; 7.2 m/s)
gusting to 26 MPH (23 knots; 11.8 m/s)
Visibility: 4 miles ( 7 km)
Ceiling: at least 12,000 feet AGL
Clouds: sky clear below 12,000 feet AGL
Weather: no significant weather observed at this time

METAR text: ZBAA 171900Z 03008G13MPS 360V060 7000 NSC 22/M06 Q1006 NOSIG
Conditions at: ZBAA (BEIJING/PEKING , CN) observed 1900 UTC 17 April 2019
Temperature: 22.0°C (72°F)
Dewpoint: -6.0°C (21°F) [RH = 15%]
Pressure (altimeter): 29.70 inches Hg (1006.0 mb)
Winds: from the NNE (30 degrees) at 18 MPH (16 knots; 8.2 m/s)
gusting to 29 MPH (25 knots; 12.9 m/s)
Visibility: 4 miles ( 7 km)
Ceiling: at least 12,000 feet AGL
Clouds: sky clear below 12,000 feet AGL
Weather: no significant weather observed at this time

METAR text: ZBAA 171830Z 03007G12MPS 350V060 CAVOK 23/M03 Q1005 NOSIG
Conditions at: ZBAA (BEIJING/PEKING , CN) observed 1830 UTC 17 April 2019
Temperature: 23.0°C (73°F)
Dewpoint: -3.0°C (27°F) [RH = 17%]
Pressure (altimeter): 29.68 inches Hg (1005.0 mb)
Winds: from the NNE (30 degrees) at 16 MPH (14 knots; 7.2 m/s)
gusting to 26 MPH (23 knots; 11.8 m/s)
Visibility: 6 or more miles (10+ km)
Ceiling: ceiling and visibility are OK
Clouds: unknown
Weather: no significant weather observed at this time

METAR text: ZBAA 171800Z 03005MPS CAVOK 23/04 Q1004 NOSIG
Conditions at: ZBAA (BEIJING/PEKING , CN) observed 1800 UTC 17 April 2019
Temperature: 23.0°C (73°F)
Dewpoint: 4.0°C (39°F) [RH = 29%]
Pressure (altimeter): 29.65 inches Hg (1004.0 mb)
Winds: from the NNE (30 degrees) at 12 MPH (10 knots; 5.1 m/s)
Visibility: 6 or more miles (10+ km)
Ceiling: ceiling and visibility are OK
Clouds: unknown
Weather: no significant weather observed at this time

METAR text: ZBAA 171730Z 35003MPS 8000 NSC 18/10 Q1003 NOSIG
Conditions at: ZBAA (BEIJING/PEKING , CN) observed 1730 UTC 17 April 2019
Temperature: 18.0°C (64°F)
Dewpoint: 10.0°C (50°F) [RH = 59%]
Pressure (altimeter): 29.62 inches Hg (1003.0 mb)
Winds: from the N (350 degrees) at 7 MPH (6 knots; 3.1 m/s)
Visibility: 5 miles ( 8 km)
Ceiling: at least 12,000 feet AGL
Clouds: sky clear below 12,000 feet AGL
Weather: no significant weather observed at this time

METAR text: ZBAA 171700Z 35004MPS 8000 NSC 18/10 Q1003 NOSIG
Conditions at: ZBAA (BEIJING/PEKING , CN) observed 1700 UTC 17 April 2019
Temperature: 18.0°C (64°F)
Dewpoint: 10.0°C (50°F) [RH = 59%]
Pressure (altimeter): 29.62 inches Hg (1003.0 mb)
Winds: from the N (350 degrees) at 9 MPH (8 knots; 4.1 m/s)
Visibility: 5 miles ( 8 km)
Ceiling: at least 12,000 feet AGL
Clouds: sky clear below 12,000 feet AGL
Weather: no significant weather observed at this time

METAR text: ZBAA 171630Z 35004MPS 7000 NSC 18/11 Q1003 NOSIG
Conditions at: ZBAA (BEIJING/PEKING , CN) observed 1630 UTC 17 April 2019
Temperature: 18.0°C (64°F)
Dewpoint: 11.0°C (52°F) [RH = 64%]
Pressure (altimeter): 29.62 inches Hg (1003.0 mb)
Winds: from the N (350 degrees) at 9 MPH (8 knots; 4.1 m/s)
Visibility: 4 miles ( 7 km)
Ceiling: at least 12,000 feet AGL
Clouds: sky clear below 12,000 feet AGL
Weather: no significant weather observed at this time

METAR text: ZBAA 171600Z 34003MPS 7000 NSC 16/11 Q1002 NOSIG
Conditions at: ZBAA (BEIJING/PEKING , CN) observed 1600 UTC 17 April 2019
Temperature: 16.0°C (61°F)
Dewpoint: 11.0°C (52°F) [RH = 72%]
Pressure (altimeter): 29.59 inches Hg (1002.0 mb)
Winds: from the NNW (340 degrees) at 7 MPH (6 knots; 3.1 m/s)
Visibility: 4 miles ( 7 km)
Ceiling: at least 12,000 feet AGL
Clouds: sky clear below 12,000 feet AGL
Weather: no significant weather observed at this time

METAR text: ZBAA 171530Z 34002MPS 6000 NSC 18/10 Q1001 NOSIG
Conditions at: ZBAA (BEIJING/PEKING , CN) observed 1530 UTC 17 April 2019
Temperature: 18.0°C (64°F)
Dewpoint: 10.0°C (50°F) [RH = 59%]
Pressure (altimeter): 29.56 inches Hg (1001.0 mb)
Winds: from the NNW (340 degrees) at 5 MPH (4 knots; 2.1 m/s)
Visibility: 4 miles ( 6 km)
Ceiling: at least 12,000 feet AGL
Clouds: sky clear below 12,000 feet AGL
Weather: no significant weather observed at this time

METAR text: ZBAA 171500Z 33001MPS 6000 NSC 20/11 Q1001 NOSIG
Conditions at: ZBAA (BEIJING/PEKING , CN) observed 1500 UTC 17 April 2019
Temperature: 20.0°C (68°F)
Dewpoint: 11.0°C (52°F) [RH = 56%]
Pressure (altimeter): 29.56 inches Hg (1001.0 mb)
Winds: from the NNW (330 degrees) at 2 MPH (2 knots; 1.0 m/s)
Visibility: 4 miles ( 6 km)
Ceiling: at least 12,000 feet AGL
Clouds: sky clear below 12,000 feet AGL
Weather: no significant weather observed at this time

METAR text: ZBAA 171430Z 01003MPS 6000 NSC 21/11 Q1000 NOSIG
Conditions at: ZBAA (BEIJING/PEKING , CN) observed 1430 UTC 17 April 2019
Temperature: 21.0°C (70°F)
Dewpoint: 11.0°C (52°F) [RH = 53%]
Pressure (altimeter): 29.53 inches Hg (1000.0 mb)
Winds: from the N (10 degrees) at 7 MPH (6 knots; 3.1 m/s)
Visibility: 4 miles ( 6 km)
Ceiling: at least 12,000 feet AGL
Clouds: sky clear below 12,000 feet AGL
Weather: no significant weather observed at this time

METAR text: ZBAA 171400Z 02002MPS 7000 NSC 21/11 Q1000 NOSIG
Conditions at: ZBAA (BEIJING/PEKING , CN) observed 1400 UTC 17 April 2019
Temperature: 21.0°C (70°F)
Dewpoint: 11.0°C (52°F) [RH = 53%]
Pressure (altimeter): 29.53 inches Hg (1000.0 mb)
Winds: from the NNE (20 degrees) at 5 MPH (4 knots; 2.1 m/s)
Visibility: 4 miles ( 7 km)
Ceiling: at least 12,000 feet AGL
Clouds: sky clear below 12,000 feet AGL
Weather: no significant weather observed at this time

METAR text: ZBAA 171330Z 02002MPS 7000 NSC 18/11 Q0999 NOSIG
Conditions at: ZBAA (BEIJING/PEKING , CN) observed 1330 UTC 17 April 2019
Temperature: 18.0°C (64°F)
Dewpoint: 11.0°C (52°F) [RH = 64%]
Pressure (altimeter): 29.50 inches Hg (999.0 mb)
Winds: from the NNE (20 degrees) at 5 MPH (4 knots; 2.1 m/s)
Visibility: 4 miles ( 7 km)
Ceiling: at least 12,000 feet AGL
Clouds: sky clear below 12,000 feet AGL
Weather: no significant weather observed at this time

METAR text: ZBAA 171300Z VRB01MPS 7000 NSC 19/11 Q0999 NOSIG
Conditions at: ZBAA (BEIJING/PEKING , CN) observed 1300 UTC 17 April 2019
Temperature: 19.0°C (66°F)
Dewpoint: 11.0°C (52°F) [RH = 60%]
Pressure (altimeter): 29.50 inches Hg (999.0 mb)
Winds: variable direction winds at 2 MPH (2 knots; 1.0 m/s)
Visibility: 4 miles ( 7 km)
Ceiling: at least 12,000 feet AGL
Clouds: sky clear below 12,000 feet AGL
Weather: no significant weather observed at this time

METAR text: ZBAA 171230Z VRB01MPS 7000 NSC 20/11 Q0998 NOSIG
Conditions at: ZBAA (BEIJING/PEKING , CN) observed 1230 UTC 17 April 2019
Temperature: 20.0°C (68°F)
Dewpoint: 11.0°C (52°F) [RH = 56%]
Pressure (altimeter): 29.47 inches Hg (998.0 mb)
Winds: variable direction winds at 2 MPH (2 knots; 1.0 m/s)
Visibility: 4 miles ( 7 km)
Ceiling: at least 12,000 feet AGL
Clouds: sky clear below 12,000 feet AGL
Weather: no significant weather observed at this time

METAR text: ZBAA 171200Z VRB01MPS 6000 NSC 20/11 Q0998 NOSIG
Conditions at: ZBAA (BEIJING/PEKING , CN) observed 1200 UTC 17 April 2019
Temperature: 20.0°C (68°F)
Dewpoint: 11.0°C (52°F) [RH = 56%]
Pressure (altimeter): 29.47 inches Hg (998.0 mb)
Winds: variable direction winds at 2 MPH (2 knots; 1.0 m/s)
Visibility: 4 miles ( 6 km)
Ceiling: at least 12,000 feet AGL
Clouds: sky clear below 12,000 feet AGL
Weather: no significant weather observed at this time

METAR text: ZBAA 171130Z VRB01MPS 6000 NSC 22/11 Q0997 NOSIG
Conditions at: ZBAA (BEIJING/PEKING , CN) observed 1130 UTC 17 April 2019
Temperature: 22.0°C (72°F)
Dewpoint: 11.0°C (52°F) [RH = 50%]
Pressure (altimeter): 29.44 inches Hg (997.0 mb)
Winds: variable direction winds at 2 MPH (2 knots; 1.0 m/s)
Visibility: 4 miles ( 6 km)
Ceiling: at least 12,000 feet AGL
Clouds: sky clear below 12,000 feet AGL
Weather: no significant weather observed at this time

METAR text: ZBAA 171100Z 26002MPS 200V340 6000 NSC 26/10 Q0997 NOSIG
Conditions at: ZBAA (BEIJING/PEKING , CN) observed 1100 UTC 17 April 2019
Temperature: 26.0°C (79°F)
Dewpoint: 10.0°C (50°F) [RH = 37%]
Pressure (altimeter): 29.44 inches Hg (997.0 mb)
Winds: from the W (260 degrees) at 5 MPH (4 knots; 2.1 m/s)
Visibility: 4 miles ( 6 km)
Ceiling: at least 12,000 feet AGL
Clouds: sky clear below 12,000 feet AGL
Weather: no significant weather observed at this time

METAR text: ZBAA 171030Z 23002MPS 7000 NSC 26/10 Q0996 NOSIG
Conditions at: ZBAA (BEIJING/PEKING , CN) observed 1030 UTC 17 April 2019
Temperature: 26.0°C (79°F)
Dewpoint: 10.0°C (50°F) [RH = 37%]
Pressure (altimeter): 29.41 inches Hg (996.0 mb)
Winds: from the SW (230 degrees) at 5 MPH (4 knots; 2.1 m/s)
Visibility: 4 miles ( 7 km)
Ceiling: at least 12,000 feet AGL
Clouds: sky clear below 12,000 feet AGL
Weather: no significant weather observed at this time

METAR text: ZBAA 171000Z 22006MPS 7000 NSC 27/09 Q0996 NOSIG
Conditions at: ZBAA (BEIJING/PEKING , CN) observed 1000 UTC 17 April 2019
Temperature: 27.0°C (81°F)
Dewpoint: 9.0°C (48°F) [RH = 32%]
Pressure (altimeter): 29.41 inches Hg (996.0 mb)
Winds: from the SW (220 degrees) at 14 MPH (12 knots; 6.2 m/s)
Visibility: 4 miles ( 7 km)
Ceiling: at least 12,000 feet AGL
Clouds: sky clear below 12,000 feet AGL
Weather: no significant weather observed at this time

METAR text: ZBAA 170930Z 21004MPS 7000 NSC 28/09 Q0996 NOSIG
Conditions at: ZBAA (BEIJING/PEKING , CN) observed 0930 UTC 17 April 2019
Temperature: 28.0°C (82°F)
Dewpoint: 9.0°C (48°F) [RH = 30%]
Pressure (altimeter): 29.41 inches Hg (996.0 mb)
Winds: from the SSW (210 degrees) at 9 MPH (8 knots; 4.1 m/s)
Visibility: 4 miles ( 7 km)
Ceiling: at least 12,000 feet AGL
Clouds: sky clear below 12,000 feet AGL
Weather: no significant weather observed at this time

METAR text: ZBAA 170900Z 20005MPS 170V230 7000 NSC 28/09 Q0995 NOSIG
Conditions at: ZBAA (BEIJING/PEKING , CN) observed 0900 UTC 17 April 2019
Temperature: 28.0°C (82°F)
Dewpoint: 9.0°C (48°F) [RH = 30%]
Pressure (altimeter): 29.38 inches Hg (995.0 mb)
Winds: from the SSW (200 degrees) at 12 MPH (10 knots; 5.1 m/s)
Visibility: 4 miles ( 7 km)
Ceiling: at least 12,000 feet AGL
Clouds: sky clear below 12,000 feet AGL
Weather: no significant weather observed at this time

METAR text: ZBAA 170830Z 19005MPS 150V220 7000 NSC 28/09 Q0995 NOSIG
Conditions at: ZBAA (BEIJING/PEKING , CN) observed 0830 UTC 17 April 2019
Temperature: 28.0°C (82°F)
Dewpoint: 9.0°C (48°F) [RH = 30%]
Pressure (altimeter): 29.38 inches Hg (995.0 mb)
Winds: from the S (190 degrees) at 12 MPH (10 knots; 5.1 m/s)
Visibility: 4 miles ( 7 km)
Ceiling: at least 12,000 feet AGL
Clouds: sky clear below 12,000 feet AGL
Weather: no significant weather observed at this time

METAR text: ZBAA 170800Z 22005MPS 150V250 6000 NSC 28/09 Q0996 NOSIG
Conditions at: ZBAA (BEIJING/PEKING , CN) observed 0800 UTC 17 April 2019
Temperature: 28.0°C (82°F)
Dewpoint: 9.0°C (48°F) [RH = 30%]
Pressure (altimeter): 29.41 inches Hg (996.0 mb)
Winds: from the SW (220 degrees) at 12 MPH (10 knots; 5.1 m/s)
Visibility: 4 miles ( 6 km)
Ceiling: at least 12,000 feet AGL
Clouds: sky clear below 12,000 feet AGL
Weather: no significant weather observed at this time

METAR text: ZBAA 170730Z 18006MPS 160V220 6000 NSC 28/09 Q0996 NOSIG
Conditions at: ZBAA (BEIJING/PEKING , CN) observed 0730 UTC 17 April 2019
Temperature: 28.0°C (82°F)
Dewpoint: 9.0°C (48°F) [RH = 30%]
Pressure (altimeter): 29.41 inches Hg (996.0 mb)
Winds: from the S (180 degrees) at 14 MPH (12 knots; 6.2 m/s)
Visibility: 4 miles ( 6 km)
Ceiling: at least 12,000 feet AGL
Clouds: sky clear below 12,000 feet AGL
Weather: no significant weather observed at this time

METAR text: ZBAA 170700Z 22005MPS 170V240 6000 NSC 28/09 Q0997 NOSIG
Conditions at: ZBAA (BEIJING/PEKING , CN) observed 0700 UTC 17 April 2019
Temperature: 28.0°C (82°F)
Dewpoint: 9.0°C (48°F) [RH = 30%]
Pressure (altimeter): 29.44 inches Hg (997.0 mb)
Winds: from the SW (220 degrees) at 12 MPH (10 knots; 5.1 m/s)
Visibility: 4 miles ( 6 km)
Ceiling: at least 12,000 feet AGL
Clouds: sky clear below 12,000 feet AGL
Weather: no significant weather observed at this time

METAR text: ZBAA 170630Z 20005MPS 6000 NSC 28/09 Q0997 NOSIG
Conditions at: ZBAA (BEIJING/PEKING , CN) observed 0630 UTC 17 April 2019
Temperature: 28.0°C (82°F)
Dewpoint: 9.0°C (48°F) [RH = 30%]
Pressure (altimeter): 29.44 inches Hg (997.0 mb)
Winds: from the SSW (200 degrees) at 12 MPH (10 knots; 5.1 m/s)
Visibility: 4 miles ( 6 km)
Ceiling: at least 12,000 feet AGL
Clouds: sky clear below 12,000 feet AGL
Weather: no significant weather observed at this time

Forecast for: ZBAA (BEIJING/PEKING , CN)
Text: TAF ZBAA 181530Z 1818/1918 18004MPS CAVOK TX20/1907Z TN08/1821Z
Forecast period: 1800 UTC 18 April 2019 to 1800 UTC 19 April 2019
Forecast type: FROM: standard forecast or significant change
Winds: from the S (180 degrees) at 9 MPH (8 knots; 4.1 m/s)
Visibility: 6 or more miles 10+ km)
Ceiling: unknown
Clouds: missing
Weather: no significant weather forecast for this period